createdAt,value
2023-04-30T00:03:31.301Z,9.40
2023-04-30T00:08:33.097Z,8.55
2023-04-30T00:13:34.769Z,10.23
2023-04-30T00:18:36.451Z,9.38
2023-04-30T00:23:38.325Z,12.45
2023-04-30T00:28:39.937Z,7.50
2023-04-30T00:33:41.778Z,6.25
2023-04-30T00:38:43.387Z,10.45
2023-04-30T00:43:47.170Z,7.47
2023-04-30T00:48:49.330Z,6.53
2023-04-30T00:53:51.913Z,9.50
2023-04-30T00:58:57.305Z,8.40
2023-04-30T01:03:59.304Z,10.73
2023-04-30T01:09:01.201Z,10.18
2023-04-30T01:14:21.259Z,10.52
2023-04-30T01:19:41.948Z,11.57
2023-04-30T01:24:56.127Z,13.63
2023-04-30T01:29:58.222Z,17.67
2023-04-30T01:35:02.925Z,15.95
2023-04-30T01:40:27.078Z,15.25
2023-04-30T01:45:54.424Z,12.68
2023-04-30T01:51:09.084Z,17.63
2023-04-30T01:56:18.491Z,14.57
2023-04-30T02:01:27.722Z,15.02
2023-04-30T02:11:33.632Z,14.07
2023-04-30T02:16:35.580Z,13.40
2023-04-30T02:21:37.475Z,11.25
2023-04-30T02:26:39.923Z,13.90
2023-04-30T02:31:41.675Z,13.88
2023-04-30T02:36:45.906Z,15.23
2023-04-30T02:41:47.497Z,14.85
2023-04-30T02:46:49.244Z,13.00
2023-04-30T02:51:50.859Z,17.58
2023-04-30T02:56:53.702Z,15.05
2023-04-30T03:01:55.339Z,17.50
2023-04-30T03:06:57.012Z,16.05
2023-04-30T03:11:58.827Z,17.55
2023-04-30T03:17:00.555Z,16.17
2023-04-30T03:22:03.197Z,19.70
2023-04-30T03:27:05.246Z,17.88
2023-04-30T03:32:06.884Z,14.27
2023-04-30T03:37:08.662Z,17.55
2023-04-30T03:42:10.553Z,17.70
2023-04-30T03:47:12.691Z,18.00
2023-04-30T03:52:14.885Z,20.30
2023-04-30T03:57:17.015Z,17.05
2023-04-30T04:02:18.943Z,17.10
2023-04-30T04:07:20.654Z,18.05
2023-04-30T04:12:22.752Z,17.48
2023-04-30T04:17:24.497Z,16.27
2023-04-30T04:22:26.673Z,19.42
2023-04-30T04:27:28.525Z,15.93
2023-04-30T04:32:30.673Z,16.27
2023-04-30T04:37:32.428Z,15.27
2023-04-30T04:42:34.091Z,17.40
2023-04-30T04:47:36.664Z,16.00
2023-04-30T04:52:39.208Z,15.85
2023-04-30T04:57:42.007Z,16.23
2023-04-30T05:02:43.674Z,16.73
2023-04-30T05:07:45.995Z,14.50
2023-04-30T05:12:47.675Z,13.77
2023-04-30T05:17:49.340Z,16.42
2023-04-30T05:22:50.969Z,14.55
2023-04-30T05:27:52.851Z,12.50
2023-04-30T05:32:56.238Z,13.20
2023-04-30T05:37:57.891Z,13.20
2023-04-30T05:42:59.478Z,13.23
2023-04-30T05:48:02.026Z,13.05
2023-04-30T05:53:04.042Z,17.42
2023-04-30T05:58:06.404Z,14.00
2023-04-30T06:03:08.304Z,12.80
2023-04-30T06:08:10.017Z,12.85
2023-04-30T06:13:11.705Z,12.48
2023-04-30T06:18:14.252Z,14.25
2023-04-30T06:23:16.043Z,13.98
2023-04-30T06:28:17.660Z,15.80
2023-04-30T06:33:19.327Z,15.75
2023-04-30T06:38:21.322Z,14.52
2023-04-30T06:43:22.987Z,12.40
2023-04-30T06:48:24.721Z,12.18
2023-04-30T06:53:26.497Z,13.68
2023-04-30T06:58:28.344Z,11.75
2023-04-30T07:03:30.017Z,12.75
2023-04-30T07:08:31.821Z,12.18
2023-04-30T07:13:33.431Z,9.85
2023-04-30T07:18:35.262Z,10.13
2023-04-30T07:23:36.973Z,9.65
2023-04-30T07:28:38.586Z,13.23
2023-04-30T07:33:40.224Z,9.25
2023-04-30T07:38:41.816Z,9.38
2023-04-30T07:43:43.781Z,8.07
2023-04-30T07:48:45.615Z,8.07
2023-04-30T07:53:47.698Z,11.30
2023-04-30T07:58:49.341Z,8.93
2023-04-30T08:03:51.058Z,8.77
2023-04-30T08:08:53.370Z,10.13
2023-04-30T08:13:55.645Z,6.97
2023-04-30T08:18:57.372Z,8.63
2023-04-30T08:23:59.058Z,8.30
2023-04-30T08:29:00.722Z,7.85
2023-04-30T08:34:02.337Z,15.77
2023-04-30T08:39:04.384Z,7.47
2023-04-30T08:44:08.310Z,6.90
2023-04-30T08:49:10.842Z,6.63
2023-04-30T08:54:14.022Z,9.68
2023-04-30T08:59:16.118Z,10.18
2023-04-30T09:04:18.401Z,7.78
2023-04-30T09:09:19.990Z,11.32
2023-04-30T09:14:27.825Z,8.07
2023-04-30T09:19:31.118Z,8.85
2023-04-30T09:24:47.207Z,7.57
2023-04-30T09:29:49.207Z,7.22
2023-04-30T09:34:51.116Z,8.35
2023-04-30T09:39:56.354Z,7.22
2023-04-30T09:44:58.387Z,6.15
2023-04-30T09:50:00.828Z,7.07
2023-04-30T09:55:02.630Z,7.68
2023-04-30T10:00:04.831Z,10.23
2023-04-30T10:05:11.244Z,5.43
2023-04-30T10:10:14.982Z,7.22
2023-04-30T10:15:25.833Z,7.57
2023-04-30T10:20:29.547Z,7.10
2023-04-30T10:25:32.815Z,7.50
2023-04-30T10:30:36.235Z,6.50
2023-04-30T10:35:51.081Z,8.55
2023-04-30T10:40:58.120Z,9.52
2023-04-30T10:46:00.129Z,6.22
2023-04-30T10:51:02.072Z,6.32
2023-04-30T10:56:09.343Z,8.98
2023-04-30T11:01:17.448Z,8.35
2023-04-30T11:06:20.732Z,9.23
2023-04-30T11:11:23.870Z,5.35
2023-04-30T11:16:35.097Z,6.25
2023-04-30T11:22:05.125Z,8.10
2023-04-30T11:32:09.047Z,5.82
2023-04-30T11:37:16.639Z,6.07
2023-04-30T11:42:19.733Z,7.70
2023-04-30T11:47:21.430Z,5.28
2023-04-30T11:52:25.606Z,7.20
2023-04-30T11:57:27.206Z,6.07
2023-04-30T12:02:29.051Z,5.63
2023-04-30T12:07:30.715Z,7.55
2023-04-30T12:12:32.430Z,6.50
2023-04-30T12:17:35.651Z,8.00
2023-04-30T12:22:37.658Z,8.13
2023-04-30T12:27:45.372Z,5.28
2023-04-30T12:32:50.939Z,8.63
2023-04-30T12:38:02.210Z,4.47
2023-04-30T12:43:08.887Z,6.90
2023-04-30T12:48:11.270Z,9.30
2023-04-30T12:53:13.285Z,4.28
2023-04-30T12:58:15.173Z,7.18
2023-04-30T13:03:21.607Z,6.00
2023-04-30T13:08:23.592Z,6.60
2023-04-30T13:13:25.487Z,6.78
2023-04-30T13:18:27.312Z,5.85
2023-04-30T13:23:30.395Z,5.35
2023-04-30T13:28:32.341Z,4.57
2023-04-30T13:33:34.074Z,5.78
2023-04-30T13:38:35.670Z,7.47
2023-04-30T13:43:41.422Z,7.88
2023-04-30T13:48:43.869Z,5.35
2023-04-30T13:53:45.592Z,8.15
2023-04-30T13:58:47.195Z,5.63
2023-04-30T14:03:48.899Z,17.60
2023-04-30T14:08:50.620Z,8.93
2023-04-30T14:13:52.537Z,6.63
2023-04-30T14:18:54.197Z,8.25
2023-04-30T14:23:55.903Z,9.00
2023-04-30T14:28:58.086Z,3.55
2023-04-30T14:34:00.049Z,6.95
2023-04-30T14:39:04.470Z,4.72
2023-04-30T14:44:06.083Z,5.47
2023-04-30T14:49:07.751Z,4.53
2023-04-30T14:54:09.706Z,6.20
2023-04-30T14:59:12.039Z,4.20
2023-04-30T15:04:13.624Z,4.68
2023-04-30T15:09:15.676Z,4.25
2023-04-30T15:14:17.435Z,3.38
2023-04-30T15:19:19.194Z,5.20
2023-04-30T15:24:22.625Z,6.20
2023-04-30T15:29:25.003Z,5.40
2023-04-30T15:34:26.769Z,5.45
2023-04-30T15:39:28.660Z,3.92
2023-04-30T15:44:30.344Z,4.22
2023-04-30T15:49:32.030Z,2.47
2023-04-30T15:54:33.724Z,4.55
2023-04-30T15:59:35.928Z,4.70
2023-04-30T16:04:37.516Z,2.97
2023-04-30T16:09:39.481Z,4.30
2023-04-30T16:14:41.247Z,4.80
2023-04-30T16:19:43.017Z,6.25
2023-04-30T16:24:44.679Z,4.15
2023-04-30T16:29:46.459Z,4.22
2023-04-30T16:34:48.071Z,4.97
2023-04-30T16:39:49.682Z,4.20
2023-04-30T16:44:51.465Z,6.15
2023-04-30T16:49:53.444Z,3.65
2023-04-30T16:54:55.605Z,4.97
2023-04-30T16:59:57.453Z,4.57
2023-04-30T17:04:59.292Z,3.92
2023-04-30T17:10:01.073Z,4.18
2023-04-30T17:15:03.829Z,3.28
2023-04-30T17:20:06.315Z,6.15
2023-04-30T17:25:08.375Z,7.28
2023-04-30T17:30:10.135Z,6.50
2023-04-30T17:35:11.728Z,3.58
2023-04-30T17:40:13.637Z,4.63
2023-04-30T17:45:16.359Z,5.63
2023-04-30T17:50:18.874Z,4.65
2023-04-30T17:55:21.976Z,4.40
2023-04-30T18:00:24.099Z,4.82
2023-04-30T18:05:25.936Z,4.05
2023-04-30T18:10:27.867Z,5.95
2023-04-30T18:15:34.992Z,3.88
2023-04-30T18:20:38.553Z,5.43
2023-04-30T18:25:42.359Z,5.68
2023-04-30T18:30:45.121Z,8.63
2023-04-30T18:35:49.723Z,6.80
2023-04-30T18:40:55.772Z,5.70
2023-04-30T18:45:57.682Z,5.55
2023-04-30T18:50:59.514Z,5.00
2023-04-30T18:56:01.114Z,5.63
2023-04-30T19:01:04.364Z,5.30
2023-04-30T19:06:06.231Z,8.43
2023-04-30T19:11:08.579Z,6.57
2023-04-30T19:16:10.314Z,5.88
2023-04-30T19:21:13.058Z,4.75
2023-04-30T19:26:14.695Z,6.82
2023-04-30T19:31:17.870Z,7.63
2023-04-30T19:36:19.591Z,6.65
2023-04-30T19:41:21.710Z,7.00
2023-04-30T19:46:23.663Z,6.97
2023-04-30T19:51:25.871Z,5.13
2023-04-30T19:56:27.576Z,7.38
2023-04-30T20:01:29.472Z,5.18
2023-04-30T20:06:31.704Z,6.85
2023-04-30T20:11:33.390Z,8.23
2023-04-30T20:16:35.063Z,7.65
2023-04-30T20:21:36.780Z,6.47
2023-04-30T20:26:38.669Z,6.88
2023-04-30T20:31:40.543Z,7.50
2023-04-30T20:36:43.306Z,7.97
2023-04-30T20:41:47.918Z,7.20
2023-04-30T20:46:49.729Z,9.60
2023-04-30T20:51:51.615Z,8.38
2023-04-30T20:56:53.260Z,8.07
2023-04-30T21:01:54.900Z,8.82
2023-04-30T21:06:56.635Z,8.35
2023-04-30T21:11:58.299Z,7.60
2023-04-30T21:16:59.931Z,8.35
2023-04-30T21:22:01.663Z,6.53
2023-04-30T21:27:04.197Z,6.07
2023-04-30T21:32:05.825Z,7.00
2023-04-30T21:37:07.451Z,7.30
2023-04-30T21:42:09.298Z,7.55
2023-04-30T21:47:11.119Z,7.18
2023-04-30T21:52:12.806Z,5.93
2023-04-30T21:57:14.437Z,7.13
2023-04-30T22:02:23.777Z,6.35
2023-04-30T22:07:27.331Z,5.03
2023-04-30T22:12:28.928Z,6.90
2023-04-30T22:17:30.681Z,7.07
2023-04-30T22:22:33.016Z,6.85
2023-04-30T22:27:34.632Z,8.57
2023-04-30T22:32:36.349Z,9.38
2023-04-30T22:37:40.606Z,5.75
2023-04-30T22:42:43.577Z,8.50
2023-04-30T22:47:45.862Z,6.30
2023-04-30T22:52:47.805Z,5.95
2023-04-30T22:57:49.394Z,9.35
2023-04-30T23:02:51.043Z,9.48
2023-04-30T23:07:54.097Z,6.75
2023-04-30T23:12:56.648Z,7.43
2023-04-30T23:18:00.343Z,7.78
2023-04-30T23:23:02.330Z,7.45
2023-04-30T23:28:05.000Z,7.28
2023-04-30T23:33:06.840Z,6.68
2023-04-30T23:38:09.304Z,7.90
2023-04-30T23:43:11.683Z,6.72
2023-04-30T23:48:13.588Z,8.93
2023-04-30T23:53:17.168Z,7.32
2023-04-30T23:58:18.800Z,6.60
